createdAt,value
2023-03-18T00:01:35.432Z,93941.72
2023-03-18T00:04:38.386Z,93948.34
2023-03-18T00:08:07.694Z,93948.25
2023-03-18T00:11:11.988Z,93954.38
2023-03-18T00:14:16.448Z,93947.31
2023-03-18T00:17:19.560Z,93951.03
2023-03-18T00:20:30.334Z,93948.00
2023-03-18T00:23:35.401Z,93946.88
2023-03-18T00:26:38.988Z,93945.41
2023-03-18T00:29:42.202Z,93940.31
2023-03-18T00:32:45.574Z,93934.13
2023-03-18T00:35:51.121Z,93932.75
2023-03-18T00:39:00.474Z,93944.00
2023-03-18T00:42:11.020Z,93945.75
2023-03-18T00:45:16.659Z,93941.03
2023-03-18T00:48:19.789Z,93942.44
2023-03-18T00:51:24.955Z,93937.69
2023-03-18T00:54:28.776Z,93940.41
2023-03-18T00:57:32.076Z,93936.34
2023-03-18T01:00:37.380Z,93936.94
2023-03-18T01:03:43.148Z,93934.25
2023-03-18T01:06:47.174Z,93936.88
2023-03-18T01:09:50.749Z,93942.16
2023-03-18T01:12:55.968Z,93930.00
2023-03-18T01:16:00.110Z,93934.16
2023-03-18T01:19:04.849Z,93945.53
2023-03-18T01:22:08.806Z,93940.75
2023-03-18T01:25:18.335Z,93940.72
2023-03-18T01:28:28.330Z,93935.72
2023-03-18T01:31:32.186Z,93938.00
2023-03-18T01:34:42.378Z,93935.19
2023-03-18T01:37:47.234Z,93934.66
2023-03-18T01:40:51.617Z,93928.75
2023-03-18T01:43:56.573Z,93925.06
2023-03-18T01:47:00.949Z,93927.16
2023-03-18T01:50:04.877Z,93922.25
2023-03-18T01:53:13.475Z,93912.31
2023-03-18T01:56:18.468Z,93919.59
2023-03-18T01:59:24.668Z,93915.72
2023-03-18T02:02:27.866Z,93918.19
2023-03-18T02:05:32.071Z,93919.47
2023-03-18T02:08:35.422Z,93908.72
2023-03-18T02:11:44.837Z,93897.34
2023-03-18T02:14:52.710Z,93903.72
2023-03-18T02:18:06.364Z,93887.38
2023-03-18T02:21:35.642Z,93891.72
2023-03-18T02:25:14.299Z,93878.75
2023-03-18T02:28:27.922Z,93880.66
2023-03-18T02:31:32.731Z,93880.47
2023-03-18T02:34:38.634Z,93874.66
2023-03-18T02:37:41.898Z,93867.91
2023-03-18T02:40:50.310Z,93869.75
2023-03-18T02:43:57.162Z,93865.00
2023-03-18T02:47:11.324Z,93860.13
2023-03-18T02:50:15.260Z,93861.00
2023-03-18T02:53:18.991Z,93849.50
2023-03-18T02:56:22.592Z,93851.66
2023-03-18T02:59:27.205Z,93854.25
2023-03-18T03:02:31.267Z,93847.66
2023-03-18T03:05:35.330Z,93845.22
2023-03-18T03:08:39.357Z,93834.53
2023-03-18T03:11:44.929Z,93836.13
2023-03-18T03:14:53.330Z,93830.78
2023-03-18T03:17:56.312Z,93819.72
2023-03-18T03:21:00.257Z,93816.41
2023-03-18T03:24:05.438Z,93808.59
2023-03-18T03:27:09.649Z,93791.66
2023-03-18T03:30:14.596Z,93794.69
2023-03-18T03:33:18.642Z,93798.00
2023-03-18T03:36:21.586Z,93783.72
2023-03-18T03:39:24.808Z,93782.13
2023-03-18T03:42:28.756Z,93779.78
2023-03-18T03:45:32.295Z,93770.50
2023-03-18T03:48:36.860Z,93769.19
2023-03-18T03:51:42.797Z,93757.31
2023-03-18T03:54:46.959Z,93755.06
2023-03-18T03:57:52.298Z,93746.00
2023-03-18T04:00:56.543Z,93746.84
2023-03-18T04:04:01.576Z,93735.66
2023-03-18T04:07:05.788Z,93744.44
2023-03-18T04:10:14.822Z,93736.50
2023-03-18T04:13:19.189Z,93726.31
2023-03-18T04:16:22.487Z,93725.59
2023-03-18T04:19:26.095Z,93709.97
2023-03-18T04:22:30.688Z,93709.97
2023-03-18T04:25:36.865Z,93704.81
2023-03-18T04:28:41.388Z,93698.19
2023-03-18T04:31:47.739Z,93698.16
2023-03-18T04:34:52.175Z,93708.63
2023-03-18T04:37:56.036Z,93694.00
2023-03-18T04:41:00.422Z,93696.16
2023-03-18T04:44:03.507Z,93690.41
2023-03-18T04:47:16.089Z,93689.66
2023-03-18T04:50:21.116Z,93679.69
2023-03-18T04:53:26.076Z,93680.59
2023-03-18T04:56:29.322Z,93671.16
2023-03-18T04:59:34.336Z,93662.94
2023-03-18T05:02:41.944Z,93655.34
2023-03-18T05:05:45.929Z,93649.78
2023-03-18T05:08:52.705Z,93642.28
2023-03-18T05:11:59.629Z,93638.56
2023-03-18T05:15:13.766Z,93631.22
2023-03-18T05:18:35.725Z,93626.22
2023-03-18T05:21:40.083Z,93623.06
2023-03-18T05:24:44.564Z,93624.94
2023-03-18T05:27:48.728Z,93604.81
2023-03-18T05:31:01.780Z,93592.19
2023-03-18T05:34:07.451Z,93592.75
2023-03-18T05:37:13.890Z,93584.59
2023-03-18T05:40:22.122Z,93574.38
2023-03-18T05:43:49.275Z,93561.59
2023-03-18T05:46:53.734Z,93565.75
2023-03-18T05:50:36.852Z,93560.16
2023-03-18T05:53:43.755Z,93546.91
2023-03-18T05:56:55.777Z,93543.78
2023-03-18T05:59:58.883Z,93537.28
2023-03-18T06:03:03.754Z,93526.78
2023-03-18T06:06:07.003Z,93530.09
2023-03-18T06:09:11.710Z,93522.75
2023-03-18T06:12:18.143Z,93521.28
2023-03-18T06:15:21.908Z,93525.97
2023-03-18T06:18:27.032Z,93517.78
2023-03-18T06:21:32.493Z,93510.03
2023-03-18T06:24:35.408Z,93509.28
2023-03-18T06:27:39.198Z,93508.28
2023-03-18T06:30:43.163Z,93494.31
2023-03-18T06:33:47.992Z,93500.94
2023-03-18T06:36:53.687Z,93488.44
2023-03-18T06:39:56.677Z,93491.59
2023-03-18T06:42:59.775Z,93486.69
2023-03-18T06:46:11.107Z,93479.06
2023-03-18T06:49:15.505Z,93480.50
2023-03-18T06:52:25.505Z,93475.75
2023-03-18T06:55:33.215Z,93469.16
2023-03-18T06:58:39.470Z,93468.56
2023-03-18T07:01:45.505Z,93463.28
2023-03-18T07:04:49.429Z,93468.78
2023-03-18T07:07:52.387Z,93457.16
2023-03-18T07:10:57.713Z,93464.06
2023-03-18T07:14:02.887Z,93461.31
2023-03-18T07:17:31.704Z,93460.34
2023-03-18T07:20:34.949Z,93453.00
2023-03-18T07:23:39.670Z,93458.59
2023-03-18T07:26:42.621Z,93450.84
2023-03-18T07:29:46.191Z,93449.00
2023-03-18T07:32:50.351Z,93447.69
2023-03-18T07:35:54.382Z,93439.66
2023-03-18T07:38:57.343Z,93441.28
2023-03-18T07:42:01.306Z,93427.19
2023-03-18T07:45:08.341Z,93421.59
2023-03-18T07:48:11.742Z,93424.63
2023-03-18T07:51:16.091Z,93421.19
2023-03-18T07:54:19.208Z,93425.94
2023-03-18T07:57:22.232Z,93420.31
2023-03-18T08:00:26.201Z,93421.91
2023-03-18T08:03:29.555Z,93411.31
2023-03-18T08:06:33.853Z,93415.03
2023-03-18T08:09:37.286Z,93405.16
2023-03-18T08:12:52.056Z,93404.00
2023-03-18T08:15:56.918Z,93408.47
2023-03-18T08:19:00.653Z,93393.66
2023-03-18T08:22:04.013Z,93397.25
2023-03-18T08:25:07.626Z,93392.50
2023-03-18T08:28:12.365Z,93398.25
2023-03-18T08:31:16.260Z,93383.75
2023-03-18T08:34:19.335Z,93386.03
2023-03-18T08:37:23.476Z,93384.59
2023-03-18T08:40:27.263Z,93381.31
2023-03-18T08:43:30.881Z,93377.59
2023-03-18T08:46:33.934Z,93373.13
2023-03-18T08:49:37.871Z,93374.56
2023-03-18T08:52:41.827Z,93373.00
2023-03-18T08:55:45.720Z,93373.84
2023-03-18T08:58:49.258Z,93365.50
2023-03-18T09:01:54.093Z,93367.16
2023-03-18T09:04:57.049Z,93366.66
2023-03-18T09:08:01.337Z,93361.19
2023-03-18T09:11:05.275Z,93361.75
2023-03-18T09:14:09.196Z,93365.50
2023-03-18T09:17:12.140Z,93363.09
2023-03-18T09:20:17.852Z,93354.34
2023-03-18T09:23:21.449Z,93355.00
2023-03-18T09:26:25.734Z,93348.00
2023-03-18T09:29:29.440Z,93350.28
2023-03-18T09:32:32.948Z,93347.69
2023-03-18T09:35:36.969Z,93336.13
2023-03-18T09:38:41.836Z,93350.03
2023-03-18T09:42:23.176Z,93346.81
2023-03-18T09:45:34.604Z,93351.97
2023-03-18T09:48:45.380Z,93338.78
2023-03-18T09:51:56.195Z,93336.75
2023-03-18T09:55:10.124Z,93343.63
2023-03-18T09:58:48.087Z,93345.06
2023-03-18T10:01:57.780Z,93340.34
2023-03-18T10:05:34.247Z,93335.44
2023-03-18T10:08:49.770Z,93340.72
2023-03-18T10:11:58.741Z,93343.28
2023-03-18T10:15:17.286Z,93341.28
2023-03-18T10:18:36.664Z,93337.34
2023-03-18T10:22:05.882Z,93344.03
2023-03-18T10:25:21.189Z,93341.53
2023-03-18T10:28:57.682Z,93344.59
2023-03-18T10:32:48.958Z,93339.66
2023-03-18T10:36:01.410Z,93340.56
2023-03-18T10:39:05.014Z,93342.63
2023-03-18T10:42:31.622Z,93344.63
2023-03-18T10:45:35.431Z,93350.34
2023-03-18T10:48:48.613Z,93344.53
2023-03-18T10:51:55.758Z,93352.25
2023-03-18T10:54:59.425Z,93352.13
2023-03-18T10:58:15.397Z,93352.78
2023-03-18T11:01:22.962Z,93358.16
2023-03-18T11:04:29.366Z,93352.16
2023-03-18T11:07:32.766Z,93355.69
2023-03-18T11:10:41.026Z,93345.59
2023-03-18T11:13:54.003Z,93353.91
2023-03-18T11:17:05.331Z,93350.88
2023-03-18T11:20:32.487Z,93352.88
2023-03-18T11:24:08.022Z,93349.41
2023-03-18T11:27:17.303Z,93352.06
2023-03-18T11:30:34.321Z,93347.41
2023-03-18T11:33:38.298Z,93345.47
2023-03-18T11:36:42.138Z,93342.34
2023-03-18T11:39:45.710Z,93342.06
2023-03-18T11:42:55.130Z,93333.78
2023-03-18T11:46:08.940Z,93334.09
2023-03-18T11:49:20.644Z,93334.19
2023-03-18T11:52:47.726Z,93339.19
2023-03-18T11:55:51.185Z,93329.88
2023-03-18T11:59:25.402Z,93334.81
2023-03-18T12:02:44.100Z,93336.69
2023-03-18T12:06:08.514Z,93327.88
2023-03-18T12:09:17.755Z,93331.41
2023-03-18T12:13:12.387Z,93332.78
2023-03-18T12:16:21.595Z,93327.25
2023-03-18T12:19:42.311Z,93322.19
2023-03-18T12:23:24.642Z,93317.53
2023-03-18T12:26:41.336Z,93319.91
2023-03-18T12:30:06.276Z,93319.19
2023-03-18T12:33:15.586Z,93330.88
2023-03-18T12:36:21.744Z,93329.13
2023-03-18T12:39:48.978Z,93323.97
2023-03-18T12:42:55.268Z,93327.16
2023-03-18T12:46:06.923Z,93323.06
2023-03-18T12:49:20.418Z,93327.00
2023-03-18T12:52:44.046Z,93324.38
2023-03-18T12:55:54.601Z,93335.09
2023-03-18T12:59:26.518Z,93329.03
2023-03-18T13:03:10.404Z,93325.44
2023-03-18T13:06:25.702Z,93333.91
2023-03-18T13:09:46.966Z,93335.50
2023-03-18T13:13:02.883Z,93336.63
2023-03-18T13:16:07.938Z,93333.66
2023-03-18T13:19:13.291Z,93331.88
2023-03-18T13:22:48.030Z,93323.16
2023-03-18T13:26:19.180Z,93337.50
2023-03-18T13:29:25.796Z,93329.81
2023-03-18T13:33:07.460Z,93335.97
2023-03-18T13:36:42.897Z,93327.88
2023-03-18T13:40:10.438Z,93332.63
2023-03-18T13:43:20.028Z,93319.78
2023-03-18T13:46:28.044Z,93319.78
2023-03-18T13:49:33.388Z,93323.81
2023-03-18T13:52:43.313Z,93313.94
2023-03-18T13:56:00.748Z,93317.22
2023-03-18T13:59:07.871Z,93315.78
2023-03-18T14:02:44.261Z,93314.66
2023-03-18T14:05:49.821Z,93310.44
2023-03-18T14:08:54.693Z,93317.06
2023-03-18T14:12:22.675Z,93308.03
2023-03-18T14:15:43.110Z,93305.03
2023-03-18T14:19:00.832Z,93303.69
2023-03-18T14:22:14.795Z,93305.00
2023-03-18T14:25:46.784Z,93309.44
2023-03-18T14:29:09.965Z,93298.16
2023-03-18T14:32:38.271Z,93300.78
2023-03-18T14:35:55.700Z,93298.81
2023-03-18T14:39:07.579Z,93293.03
2023-03-18T14:42:46.637Z,93296.78
2023-03-18T14:45:50.355Z,93298.59
2023-03-18T14:48:55.215Z,93297.88
2023-03-18T14:52:00.270Z,93286.84
2023-03-18T14:55:09.412Z,93289.09
2023-03-18T14:58:19.830Z,93281.78
2023-03-18T15:01:28.156Z,93271.63
2023-03-18T15:04:32.585Z,93275.69
2023-03-18T15:07:42.319Z,93273.22
2023-03-18T15:10:50.501Z,93274.41
2023-03-18T15:14:00.325Z,93280.34
2023-03-18T15:17:13.332Z,93274.22
2023-03-18T15:20:17.898Z,93267.34
2023-03-18T15:23:29.936Z,93267.09
2023-03-18T15:26:42.298Z,93267.94
2023-03-18T15:29:51.597Z,93261.03
2023-03-18T15:33:18.043Z,93256.34
2023-03-18T15:36:21.531Z,93269.13
2023-03-18T15:39:37.101Z,93256.34
2023-03-18T15:42:40.208Z,93251.28
2023-03-18T15:45:48.121Z,93257.59
2023-03-18T15:48:56.651Z,93246.31
2023-03-18T15:52:03.296Z,93245.22
2023-03-18T15:55:32.531Z,93244.78
2023-03-18T15:58:38.792Z,93247.44
2023-03-18T16:01:42.883Z,93237.59
2023-03-18T16:04:48.817Z,93235.75
2023-03-18T16:07:55.617Z,93231.41
2023-03-18T16:11:02.934Z,93228.53
2023-03-18T16:14:06.936Z,93228.97
2023-03-18T16:17:21.488Z,93226.09
2023-03-18T16:20:29.960Z,93224.34
2023-03-18T16:23:33.011Z,93221.06
2023-03-18T16:26:36.681Z,93221.47
2023-03-18T16:29:40.404Z,93211.63
2023-03-18T16:32:43.421Z,93209.78
2023-03-18T16:35:51.841Z,93208.66
2023-03-18T16:38:55.471Z,93203.63
2023-03-18T16:41:58.833Z,93198.59
2023-03-18T16:45:01.890Z,93202.59
2023-03-18T16:48:07.826Z,93196.03
2023-03-18T16:51:11.559Z,93188.09
2023-03-18T16:54:21.649Z,93195.41
2023-03-18T16:57:25.529Z,93188.13
2023-03-18T17:00:32.846Z,93189.69
2023-03-18T17:03:36.946Z,93189.78
2023-03-18T17:06:40.305Z,93182.59
2023-03-18T17:09:43.240Z,93191.03
2023-03-18T17:13:03.139Z,93178.31
2023-03-18T17:16:15.913Z,93185.31
2023-03-18T17:19:23.846Z,93181.44
2023-03-18T17:22:33.226Z,93181.56
2023-03-18T17:25:36.812Z,93175.88
2023-03-18T17:28:45.897Z,93171.16
2023-03-18T17:31:48.890Z,93169.41
2023-03-18T17:34:53.286Z,93170.19
2023-03-18T17:37:57.663Z,93167.31
2023-03-18T17:41:02.835Z,93164.84
2023-03-18T17:44:29.886Z,93163.00
2023-03-18T17:47:33.457Z,93166.06
2023-03-18T17:50:37.713Z,93158.50
2023-03-18T17:53:43.326Z,93160.72
2023-03-18T17:56:46.756Z,93153.59
2023-03-18T17:59:50.829Z,93154.03
2023-03-18T18:03:00.811Z,93150.44
2023-03-18T18:06:05.411Z,93150.97
2023-03-18T18:09:14.009Z,93140.41
2023-03-18T18:12:23.760Z,93141.78
2023-03-18T18:15:28.333Z,93140.72
2023-03-18T18:18:33.535Z,93135.81
2023-03-18T18:21:38.069Z,93129.00
2023-03-18T18:24:42.953Z,93138.22
2023-03-18T18:27:48.017Z,93123.78
2023-03-18T18:30:51.592Z,93125.22
2023-03-18T18:33:56.276Z,93125.31
2023-03-18T18:37:00.208Z,93121.75
2023-03-18T18:40:03.387Z,93122.13
2023-03-18T18:43:07.173Z,93113.31
2023-03-18T18:46:16.797Z,93106.44
2023-03-18T18:49:25.598Z,93112.59
2023-03-18T18:52:28.742Z,93107.94
2023-03-18T18:55:32.565Z,93109.56
2023-03-18T18:58:38.032Z,93112.16
2023-03-18T19:01:41.360Z,93099.75
2023-03-18T19:04:44.233Z,93082.16
2023-03-18T19:07:48.335Z,93098.75
2023-03-18T19:10:58.722Z,93091.53
2023-03-18T19:14:25.242Z,93086.47
2023-03-18T19:17:28.208Z,93089.31
2023-03-18T19:20:31.952Z,93084.84
2023-03-18T19:23:36.776Z,93081.09
2023-03-18T19:26:39.654Z,93071.47
2023-03-18T19:29:42.929Z,93079.09
2023-03-18T19:32:46.656Z,93067.00
2023-03-18T19:35:50.832Z,93080.25
2023-03-18T19:38:56.659Z,93069.28
2023-03-18T19:42:00.545Z,93054.69
2023-03-18T19:45:06.384Z,93057.34
2023-03-18T19:48:16.690Z,93058.91
2023-03-18T19:51:20.198Z,93057.97
2023-03-18T19:54:26.322Z,93053.28
2023-03-18T19:57:33.523Z,93047.56
2023-03-18T20:00:37.705Z,93046.91
2023-03-18T20:03:41.067Z,93050.56
2023-03-18T20:06:46.235Z,93049.06
2023-03-18T20:09:51.090Z,93042.19
2023-03-18T20:12:54.338Z,93042.56
2023-03-18T20:15:57.258Z,93038.59
2023-03-18T20:19:00.192Z,93029.88
2023-03-18T20:22:04.033Z,93034.25
2023-03-18T20:25:09.621Z,93026.66
2023-03-18T20:28:19.400Z,93024.44
2023-03-18T20:31:23.179Z,93028.13
2023-03-18T20:34:27.036Z,93022.34
2023-03-18T20:37:37.088Z,93020.53
2023-03-18T20:40:42.659Z,93016.88
2023-03-18T20:43:50.175Z,93018.38
2023-03-18T20:46:53.838Z,93011.78
2023-03-18T20:49:57.435Z,93020.19
2023-03-18T20:53:01.340Z,93010.41
2023-03-18T20:56:04.667Z,93006.84
2023-03-18T20:59:10.525Z,93005.00
2023-03-18T21:02:36.949Z,92999.06
2023-03-18T21:05:40.543Z,92998.47
2023-03-18T21:08:47.469Z,92987.28
2023-03-18T21:11:51.522Z,92993.53
2023-03-18T21:14:55.570Z,92985.97
2023-03-18T21:18:00.291Z,92988.22
2023-03-18T21:21:03.579Z,92993.38
2023-03-18T21:24:33.017Z,92985.34
2023-03-18T21:27:37.375Z,92996.97
2023-03-18T21:30:42.543Z,93002.06
2023-03-18T21:33:47.159Z,92995.94
2023-03-18T21:36:50.996Z,92998.84
2023-03-18T21:39:54.414Z,93005.41
2023-03-18T21:42:57.715Z,93000.31
2023-03-18T21:46:02.718Z,92998.13
2023-03-18T21:49:07.038Z,93002.16
2023-03-18T21:52:20.007Z,92992.66
2023-03-18T21:55:23.596Z,92988.28
2023-03-18T21:58:28.190Z,92994.38
2023-03-18T22:01:33.125Z,92991.16
2023-03-18T22:04:36.254Z,92994.16
2023-03-18T22:07:39.633Z,92991.31
2023-03-18T22:10:44.044Z,92989.13
2023-03-18T22:13:49.029Z,92989.84
2023-03-18T22:16:52.234Z,92993.16
2023-03-18T22:19:57.318Z,92988.50
2023-03-18T22:23:01.111Z,92993.97
2023-03-18T22:26:04.535Z,92991.03
2023-03-18T22:29:07.436Z,92994.69
2023-03-18T22:32:28.734Z,92994.34
2023-03-18T22:35:32.036Z,92980.94
2023-03-18T22:38:35.844Z,92986.38
2023-03-18T22:41:39.601Z,92984.88
2023-03-18T22:44:42.564Z,92984.16
2023-03-18T22:47:45.441Z,92973.94
2023-03-18T22:50:49.602Z,92972.47
2023-03-18T22:53:54.638Z,92977.13
2023-03-18T22:56:58.908Z,92973.44
2023-03-18T23:00:01.790Z,92975.22
2023-03-18T23:03:13.681Z,92975.09
2023-03-18T23:06:21.382Z,92981.63
2023-03-18T23:09:26.197Z,92975.13
2023-03-18T23:12:33.150Z,92974.09
2023-03-18T23:15:37.505Z,92979.50
2023-03-18T23:18:41.121Z,92972.59
2023-03-18T23:21:44.806Z,92974.41
2023-03-18T23:24:48.312Z,92971.56
2023-03-18T23:27:51.291Z,92968.00
2023-03-18T23:30:54.358Z,92968.34
2023-03-18T23:33:58.266Z,92970.47
2023-03-18T23:37:02.073Z,92962.81
2023-03-18T23:40:06.829Z,92958.75
2023-03-18T23:43:10.274Z,92964.88
2023-03-18T23:46:13.453Z,92966.94
2023-03-18T23:49:17.312Z,92958.50
2023-03-18T23:52:20.538Z,92966.31
2023-03-18T23:55:34.099Z,92965.13
2023-03-18T23:58:38.909Z,92964.25
